sensor_id;sensor_type;location;lat;lon;timestamp;P1;durP1;ratioP1;P2;durP2;ratioP2
3050;SDS011;1535;51.098;6.414;2023-01-01T00:00:12;21.67;;;19.83;;
3050;SDS011;1535;51.098;6.414;2023-01-01T00:02:40;24.40;;;19.90;;
3050;SDS011;1535;51.098;6.414;2023-01-01T00:05:07;22.90;;;20.73;;
3050;SDS011;1535;51.098;6.414;2023-01-01T00:07:34;21.37;;;19.47;;
3050;SDS011;1535;51.098;6.414;2023-01-01T00:10:02;22.70;;;20.33;;
3050;SDS011;1535;51.098;6.414;2023-01-01T00:12:47;20.90;;;19.03;;
3050;SDS011;1535;51.098;6.414;2023-01-01T00:15:14;19.20;;;17.37;;
3050;SDS011;1535;51.098;6.414;2023-01-01T00:17:42;21.37;;;15.97;;
3050;SDS011;1535;51.098;6.414;2023-01-01T00:20:09;16.50;;;15.40;;
3050;SDS011;1535;51.098;6.414;2023-01-01T00:22:36;18.47;;;16.97;;
3050;SDS011;1535;51.098;6.414;2023-01-01T00:25:03;17.90;;;16.27;;
3050;SDS011;1535;51.098;6.414;2023-01-01T00:27:31;16.50;;;15.10;;
3050;SDS011;1535;51.098;6.414;2023-01-01T00:29:58;14.90;;;14.00;;
3050;SDS011;1535;51.098;6.414;2023-01-01T00:32:25;16.10;;;14.93;;
3050;SDS011;1535;51.098;6.414;2023-01-01T00:34:53;15.17;;;14.10;;
3050;SDS011;1535;51.098;6.414;2023-01-01T00:37:20;15.07;;;14.20;;
3050;SDS011;1535;51.098;6.414;2023-01-01T00:39:47;14.73;;;14.00;;
3050;SDS011;1535;51.098;6.414;2023-01-01T00:42:13;15.77;;;14.77;;
3050;SDS011;1535;51.098;6.414;2023-01-01T00:44:40;15.00;;;13.93;;
3050;SDS011;1535;51.098;6.414;2023-01-01T00:47:07;15.10;;;13.90;;
3050;SDS011;1535;51.098;6.414;2023-01-01T00:49:33;15.23;;;14.00;;
3050;SDS011;1535;51.098;6.414;2023-01-01T00:52:03;14.60;;;13.70;;
3050;SDS011;1535;51.098;6.414;2023-01-01T00:54:30;14.00;;;13.20;;
3050;SDS011;1535;51.098;6.414;2023-01-01T00:56:56;15.17;;;14.17;;
3050;SDS011;1535;51.098;6.414;2023-01-01T00:59:23;14.93;;;13.73;;
3050;SDS011;1535;51.098;6.414;2023-01-01T01:01:50;15.17;;;14.07;;
3050;SDS011;1535;51.098;6.414;2023-01-01T01:04:17;15.97;;;13.83;;
3050;SDS011;1535;51.098;6.414;2023-01-01T01:06:43;14.90;;;13.83;;
3050;SDS011;1535;51.098;6.414;2023-01-01T01:09:11;14.10;;;13.23;;
3050;SDS011;1535;51.098;6.414;2023-01-01T01:11:38;15.90;;;14.27;;
3050;SDS011;1535;51.098;6.414;2023-01-01T01:14:05;16.80;;;13.60;;
3050;SDS011;1535;51.098;6.414;2023-01-01T01:16:33;15.30;;;14.20;;
3050;SDS011;1535;51.098;6.414;2023-01-01T01:19:01;15.40;;;14.30;;
3050;SDS011;1535;51.098;6.414;2023-01-01T01:21:30;15.50;;;14.47;;
3050;SDS011;1535;51.098;6.414;2023-01-01T01:24:00;16.33;;;14.73;;
3050;SDS011;1535;51.098;6.414;2023-01-01T01:26:30;15.90;;;14.77;;
3050;SDS011;1535;51.098;6.414;2023-01-01T01:28:59;15.87;;;14.77;;
3050;SDS011;1535;51.098;6.414;2023-01-01T01:31:27;15.30;;;13.97;;
3050;SDS011;1535;51.098;6.414;2023-01-01T01:33:55;14.43;;;13.30;;
3050;SDS011;1535;51.098;6.414;2023-01-01T01:36:23;15.27;;;13.87;;
3050;SDS011;1535;51.098;6.414;2023-01-01T01:38:50;14.77;;;13.43;;
3050;SDS011;1535;51.098;6.414;2023-01-01T01:41:18;14.50;;;13.40;;
3050;SDS011;1535;51.098;6.414;2023-01-01T01:43:52;14.43;;;13.50;;
3050;SDS011;1535;51.098;6.414;2023-01-01T01:46:23;14.60;;;13.57;;
3050;SDS011;1535;51.098;6.414;2023-01-01T01:48:55;13.70;;;13.00;;
3050;SDS011;1535;51.098;6.414;2023-01-01T01:51:26;14.67;;;13.73;;
3050;SDS011;1535;51.098;6.414;2023-01-01T01:53:58;14.70;;;13.50;;
3050;SDS011;1535;51.098;6.414;2023-01-01T01:56:30;13.80;;;13.00;;
3050;SDS011;1535;51.098;6.414;2023-01-01T01:59:04;14.23;;;13.50;;
3050;SDS011;1535;51.098;6.414;2023-01-01T02:01:31;14.63;;;13.83;;
3050;SDS011;1535;51.098;6.414;2023-01-01T02:03:59;15.67;;;14.77;;
3050;SDS011;1535;51.098;6.414;2023-01-01T02:06:27;15.10;;;14.10;;
3050;SDS011;1535;51.098;6.414;2023-01-01T02:08:56;15.93;;;14.70;;
3050;SDS011;1535;51.098;6.414;2023-01-01T02:11:25;15.50;;;14.30;;
3050;SDS011;1535;51.098;6.414;2023-01-01T02:13:52;15.73;;;14.73;;
3050;SDS011;1535;51.098;6.414;2023-01-01T02:16:22;15.40;;;13.97;;
3050;SDS011;1535;51.098;6.414;2023-01-01T02:18:56;15.00;;;14.10;;
3050;SDS011;1535;51.098;6.414;2023-01-01T02:21:29;15.77;;;14.80;;
3050;SDS011;1535;51.098;6.414;2023-01-01T02:26:53;14.77;;;14.07;;
3050;SDS011;1535;51.098;6.414;2023-01-01T02:29:28;16.33;;;15.10;;
3050;SDS011;1535;51.098;6.414;2023-01-01T02:32:03;16.37;;;14.70;;
3050;SDS011;1535;51.098;6.414;2023-01-01T02:34:34;15.47;;;14.47;;
3050;SDS011;1535;51.098;6.414;2023-01-01T02:37:05;14.60;;;13.70;;
3050;SDS011;1535;51.098;6.414;2023-01-01T02:39:36;14.50;;;13.70;;
3050;SDS011;1535;51.098;6.414;2023-01-01T02:42:07;14.87;;;13.97;;
3050;SDS011;1535;51.098;6.414;2023-01-01T02:44:36;14.13;;;13.17;;
3050;SDS011;1535;51.098;6.414;2023-01-01T02:47:08;15.33;;;14.20;;
3050;SDS011;1535;51.098;6.414;2023-01-01T02:49:38;14.30;;;13.40;;
3050;SDS011;1535;51.098;6.414;2023-01-01T02:52:14;14.30;;;13.50;;
3050;SDS011;1535;51.098;6.414;2023-01-01T02:54:51;14.93;;;13.93;;
3050;SDS011;1535;51.098;6.414;2023-01-01T02:57:25;15.60;;;14.50;;
3050;SDS011;1535;51.098;6.414;2023-01-01T03:00:00;15.73;;;14.63;;
3050;SDS011;1535;51.098;6.414;2023-01-01T03:05:47;14.80;;;13.90;;
3050;SDS011;1535;51.098;6.414;2023-01-01T03:08:38;14.83;;;13.97;;
3050;SDS011;1535;51.098;6.414;2023-01-01T03:11:14;15.60;;;14.50;;
3050;SDS011;1535;51.098;6.414;2023-01-01T03:13:45;15.07;;;14.07;;
3050;SDS011;1535;51.098;6.414;2023-01-01T03:16:20;15.73;;;14.33;;
3050;SDS011;1535;51.098;6.414;2023-01-01T03:18:52;14.23;;;13.53;;
3050;SDS011;1535;51.098;6.414;2023-01-01T03:21:37;16.00;;;14.33;;
3050;SDS011;1535;51.098;6.414;2023-01-01T03:24:08;14.50;;;13.60;;
3050;SDS011;1535;51.098;6.414;2023-01-01T03:26:38;15.97;;;14.73;;
3050;SDS011;1535;51.098;6.414;2023-01-01T03:29:08;14.97;;;14.07;;
3050;SDS011;1535;51.098;6.414;2023-01-01T03:31:39;14.57;;;13.50;;
3050;SDS011;1535;51.098;6.414;2023-01-01T03:34:10;15.10;;;14.20;;
3050;SDS011;1535;51.098;6.414;2023-01-01T03:36:42;16.47;;;14.90;;
3050;SDS011;1535;51.098;6.414;2023-01-01T03:39:13;14.97;;;13.80;;
3050;SDS011;1535;51.098;6.414;2023-01-01T03:41:45;14.80;;;14.00;;
3050;SDS011;1535;51.098;6.414;2023-01-01T03:44:16;15.40;;;14.03;;
3050;SDS011;1535;51.098;6.414;2023-01-01T03:46:48;14.63;;;13.73;;
3050;SDS011;1535;51.098;6.414;2023-01-01T03:49:16;13.90;;;13.20;;
3050;SDS011;1535;51.098;6.414;2023-01-01T03:51:50;13.90;;;13.10;;
3050;SDS011;1535;51.098;6.414;2023-01-01T03:54:26;14.83;;;13.43;;
3050;SDS011;1535;51.098;6.414;2023-01-01T03:57:00;13.60;;;12.90;;
3050;SDS011;1535;51.098;6.414;2023-01-01T03:59:36;15.03;;;13.83;;
3050;SDS011;1535;51.098;6.414;2023-01-01T04:02:10;14.63;;;13.73;;
3050;SDS011;1535;51.098;6.414;2023-01-01T04:04:42;15.17;;;14.30;;
3050;SDS011;1535;51.098;6.414;2023-01-01T04:07:09;14.93;;;13.77;;
3050;SDS011;1535;51.098;6.414;2023-01-01T04:09:36;15.30;;;14.27;;
3050;SDS011;1535;51.098;6.414;2023-01-01T04:12:09;15.03;;;14.03;;
3050;SDS011;1535;51.098;6.414;2023-01-01T04:14:38;14.90;;;13.90;;
3050;SDS011;1535;51.098;6.414;2023-01-01T04:17:07;14.80;;;13.70;;
3050;SDS011;1535;51.098;6.414;2023-01-01T04:19:36;14.93;;;13.40;;
3050;SDS011;1535;51.098;6.414;2023-01-01T04:22:03;13.93;;;13.17;;
3050;SDS011;1535;51.098;6.414;2023-01-01T04:24:31;14.13;;;13.20;;
3050;SDS011;1535;51.098;6.414;2023-01-01T04:26:58;14.60;;;13.70;;
3050;SDS011;1535;51.098;6.414;2023-01-01T04:29:25;14.43;;;13.33;;
3050;SDS011;1535;51.098;6.414;2023-01-01T04:31:51;14.10;;;13.30;;
3050;SDS011;1535;51.098;6.414;2023-01-01T04:34:18;14.30;;;13.30;;
3050;SDS011;1535;51.098;6.414;2023-01-01T04:36:47;13.60;;;12.60;;
3050;SDS011;1535;51.098;6.414;2023-01-01T04:39:15;13.70;;;13.10;;
3050;SDS011;1535;51.098;6.414;2023-01-01T04:41:45;14.30;;;13.20;;
3050;SDS011;1535;51.098;6.414;2023-01-01T04:44:12;15.47;;;14.10;;
3050;SDS011;1535;51.098;6.414;2023-01-01T04:46:39;13.13;;;12.37;;
3050;SDS011;1535;51.098;6.414;2023-01-01T04:49:06;14.20;;;13.00;;
3050;SDS011;1535;51.098;6.414;2023-01-01T04:51:33;13.80;;;12.90;;
3050;SDS011;1535;51.098;6.414;2023-01-01T04:54:02;14.87;;;13.47;;
3050;SDS011;1535;51.098;6.414;2023-01-01T04:56:30;14.00;;;13.07;;
3050;SDS011;1535;51.098;6.414;2023-01-01T04:58:57;14.47;;;13.17;;
3050;SDS011;1535;51.098;6.414;2023-01-01T05:01:24;13.50;;;12.80;;
3050;SDS011;1535;51.098;6.414;2023-01-01T05:03:52;14.17;;;13.30;;
3050;SDS011;1535;51.098;6.414;2023-01-01T05:06:19;13.40;;;12.57;;
3050;SDS011;1535;51.098;6.414;2023-01-01T05:08:47;13.57;;;12.83;;
3050;SDS011;1535;51.098;6.414;2023-01-01T05:11:18;13.70;;;12.90;;
3050;SDS011;1535;51.098;6.414;2023-01-01T05:13:46;13.70;;;12.90;;
3050;SDS011;1535;51.098;6.414;2023-01-01T05:16:14;13.73;;;12.93;;
3050;SDS011;1535;51.098;6.414;2023-01-01T05:18:42;14.23;;;13.10;;
3050;SDS011;1535;51.098;6.414;2023-01-01T05:21:11;13.03;;;12.33;;
3050;SDS011;1535;51.098;6.414;2023-01-01T05:23:38;13.70;;;12.70;;
3050;SDS011;1535;51.098;6.414;2023-01-01T05:26:09;13.87;;;12.97;;
3050;SDS011;1535;51.098;6.414;2023-01-01T05:28:38;13.30;;;12.50;;
3050;SDS011;1535;51.098;6.414;2023-01-01T05:31:06;15.03;;;13.83;;
3050;SDS011;1535;51.098;6.414;2023-01-01T05:33:34;12.43;;;11.70;;
3050;SDS011;1535;51.098;6.414;2023-01-01T05:36:01;13.27;;;12.47;;
3050;SDS011;1535;51.098;6.414;2023-01-01T05:38:29;13.20;;;12.10;;
3050;SDS011;1535;51.098;6.414;2023-01-01T05:40:56;14.63;;;13.27;;
3050;SDS011;1535;51.098;6.414;2023-01-01T05:43:22;14.17;;;13.10;;
3050;SDS011;1535;51.098;6.414;2023-01-01T05:45:59;13.60;;;12.57;;
3050;SDS011;1535;51.098;6.414;2023-01-01T05:48:26;13.87;;;12.97;;
3050;SDS011;1535;51.098;6.414;2023-01-01T05:50:59;14.27;;;13.27;;
3050;SDS011;1535;51.098;6.414;2023-01-01T05:53:27;13.00;;;12.37;;
3050;SDS011;1535;51.098;6.414;2023-01-01T05:55:54;13.63;;;12.93;;
3050;SDS011;1535;51.098;6.414;2023-01-01T05:58:22;14.20;;;13.17;;
3050;SDS011;1535;51.098;6.414;2023-01-01T06:00:49;13.63;;;12.43;;
3050;SDS011;1535;51.098;6.414;2023-01-01T06:03:17;14.37;;;13.17;;
3050;SDS011;1535;51.098;6.414;2023-01-01T06:05:44;14.00;;;12.90;;
3050;SDS011;1535;51.098;6.414;2023-01-01T06:08:11;14.67;;;13.63;;
3050;SDS011;1535;51.098;6.414;2023-01-01T06:10:37;13.83;;;12.60;;
3050;SDS011;1535;51.098;6.414;2023-01-01T06:13:04;15.47;;;14.10;;
3050;SDS011;1535;51.098;6.414;2023-01-01T06:15:31;14.47;;;13.50;;
3050;SDS011;1535;51.098;6.414;2023-01-01T06:17:58;14.43;;;13.20;;
3050;SDS011;1535;51.098;6.414;2023-01-01T06:20:26;13.90;;;13.00;;
3050;SDS011;1535;51.098;6.414;2023-01-01T06:22:53;14.27;;;13.17;;
3050;SDS011;1535;51.098;6.414;2023-01-01T06:25:20;14.97;;;13.80;;
3050;SDS011;1535;51.098;6.414;2023-01-01T06:27:47;13.80;;;13.00;;
3050;SDS011;1535;51.098;6.414;2023-01-01T06:30:14;14.57;;;13.37;;
3050;SDS011;1535;51.098;6.414;2023-01-01T06:32:41;14.33;;;13.43;;
3050;SDS011;1535;51.098;6.414;2023-01-01T06:35:08;14.13;;;13.43;;
3050;SDS011;1535;51.098;6.414;2023-01-01T06:37:36;13.93;;;13.13;;
3050;SDS011;1535;51.098;6.414;2023-01-01T06:40:04;13.77;;;12.93;;
3050;SDS011;1535;51.098;6.414;2023-01-01T06:42:31;14.37;;;13.03;;
3050;SDS011;1535;51.098;6.414;2023-01-01T06:44:58;14.10;;;12.67;;
3050;SDS011;1535;51.098;6.414;2023-01-01T06:47:25;12.43;;;11.73;;
3050;SDS011;1535;51.098;6.414;2023-01-01T06:49:52;13.80;;;12.60;;
3050;SDS011;1535;51.098;6.414;2023-01-01T06:52:19;13.27;;;12.17;;
3050;SDS011;1535;51.098;6.414;2023-01-01T06:54:47;13.33;;;12.43;;
3050;SDS011;1535;51.098;6.414;2023-01-01T06:57:14;13.97;;;12.93;;
3050;SDS011;1535;51.098;6.414;2023-01-01T06:59:41;15.13;;;12.63;;
3050;SDS011;1535;51.098;6.414;2023-01-01T07:02:08;14.13;;;13.03;;
3050;SDS011;1535;51.098;6.414;2023-01-01T07:04:37;13.97;;;12.53;;
3050;SDS011;1535;51.098;6.414;2023-01-01T07:07:04;13.23;;;12.43;;
3050;SDS011;1535;51.098;6.414;2023-01-01T07:09:31;13.43;;;12.43;;
3050;SDS011;1535;51.098;6.414;2023-01-01T07:12:00;14.27;;;12.57;;
3050;SDS011;1535;51.098;6.414;2023-01-01T07:14:27;13.60;;;12.63;;
3050;SDS011;1535;51.098;6.414;2023-01-01T07:16:53;13.60;;;12.13;;
3050;SDS011;1535;51.098;6.414;2023-01-01T07:19:20;13.33;;;12.30;;
3050;SDS011;1535;51.098;6.414;2023-01-01T07:21:50;13.70;;;12.47;;
3050;SDS011;1535;51.098;6.414;2023-01-01T07:24:18;13.40;;;12.30;;
3050;SDS011;1535;51.098;6.414;2023-01-01T07:26:45;13.77;;;12.60;;
3050;SDS011;1535;51.098;6.414;2023-01-01T07:29:14;13.77;;;11.97;;
3050;SDS011;1535;51.098;6.414;2023-01-01T07:31:42;12.87;;;12.07;;
3050;SDS011;1535;51.098;6.414;2023-01-01T07:34:10;13.07;;;12.00;;
3050;SDS011;1535;51.098;6.414;2023-01-01T07:36:40;13.30;;;12.27;;
3050;SDS011;1535;51.098;6.414;2023-01-01T07:39:07;12.63;;;11.63;;
3050;SDS011;1535;51.098;6.414;2023-01-01T07:41:34;13.23;;;12.13;;
3050;SDS011;1535;51.098;6.414;2023-01-01T07:44:01;11.73;;;10.93;;
3050;SDS011;1535;51.098;6.414;2023-01-01T07:46:29;12.17;;;11.27;;
3050;SDS011;1535;51.098;6.414;2023-01-01T07:48:56;13.77;;;12.37;;
3050;SDS011;1535;51.098;6.414;2023-01-01T07:51:22;14.43;;;11.53;;
3050;SDS011;1535;51.098;6.414;2023-01-01T07:53:49;12.40;;;11.60;;
3050;SDS011;1535;51.098;6.414;2023-01-01T07:56:16;11.73;;;10.67;;
3050;SDS011;1535;51.098;6.414;2023-01-01T07:58:43;11.47;;;10.83;;
3050;SDS011;1535;51.098;6.414;2023-01-01T08:01:10;14.27;;;12.90;;
3050;SDS011;1535;51.098;6.414;2023-01-01T08:03:41;13.07;;;12.20;;
3050;SDS011;1535;51.098;6.414;2023-01-01T08:06:08;13.37;;;12.07;;
3050;SDS011;1535;51.098;6.414;2023-01-01T08:08:36;13.17;;;12.37;;
3050;SDS011;1535;51.098;6.414;2023-01-01T08:11:03;13.97;;;12.70;;
3050;SDS011;1535;51.098;6.414;2023-01-01T08:13:30;14.60;;;12.10;;
3050;SDS011;1535;51.098;6.414;2023-01-01T08:15:57;13.13;;;12.23;;
3050;SDS011;1535;51.098;6.414;2023-01-01T08:18:24;13.20;;;12.03;;
3050;SDS011;1535;51.098;6.414;2023-01-01T08:20:53;12.87;;;11.97;;
3050;SDS011;1535;51.098;6.414;2023-01-01T08:23:21;12.70;;;11.77;;
3050;SDS011;1535;51.098;6.414;2023-01-01T08:25:48;13.60;;;12.47;;
3050;SDS011;1535;51.098;6.414;2023-01-01T08:28:15;14.03;;;12.70;;
3050;SDS011;1535;51.098;6.414;2023-01-01T08:30:41;12.67;;;11.77;;
3050;SDS011;1535;51.098;6.414;2023-01-01T08:33:08;12.70;;;11.60;;
3050;SDS011;1535;51.098;6.414;2023-01-01T08:35:36;11.87;;;11.17;;
3050;SDS011;1535;51.098;6.414;2023-01-01T08:38:06;13.00;;;12.13;;
3050;SDS011;1535;51.098;6.414;2023-01-01T08:40:35;11.87;;;11.00;;
3050;SDS011;1535;51.098;6.414;2023-01-01T08:43:02;12.73;;;11.60;;
3050;SDS011;1535;51.098;6.414;2023-01-01T08:45:29;11.73;;;11.00;;
3050;SDS011;1535;51.098;6.414;2023-01-01T08:47:56;12.77;;;11.73;;
3050;SDS011;1535;51.098;6.414;2023-01-01T08:50:23;14.43;;;13.33;;
3050;SDS011;1535;51.098;6.414;2023-01-01T08:52:50;13.17;;;11.93;;
3050;SDS011;1535;51.098;6.414;2023-01-01T08:55:18;13.17;;;12.23;;
3050;SDS011;1535;51.098;6.414;2023-01-01T08:57:45;13.70;;;12.30;;
3050;SDS011;1535;51.098;6.414;2023-01-01T09:00:12;13.07;;;12.10;;
3050;SDS011;1535;51.098;6.414;2023-01-01T09:02:40;14.50;;;13.30;;
3050;SDS011;1535;51.098;6.414;2023-01-01T09:05:07;13.73;;;12.70;;
3050;SDS011;1535;51.098;6.414;2023-01-01T09:07:35;13.80;;;12.90;;
3050;SDS011;1535;51.098;6.414;2023-01-01T09:10:02;13.77;;;12.57;;
3050;SDS011;1535;51.098;6.414;2023-01-01T09:12:31;14.27;;;12.93;;
3050;SDS011;1535;51.098;6.414;2023-01-01T09:14:57;20.53;;;13.20;;
3050;SDS011;1535;51.098;6.414;2023-01-01T09:17:24;12.80;;;11.90;;
3050;SDS011;1535;51.098;6.414;2023-01-01T09:19:51;14.03;;;12.57;;
3050;SDS011;1535;51.098;6.414;2023-01-01T09:22:18;13.83;;;12.73;;
3050;SDS011;1535;51.098;6.414;2023-01-01T09:24:45;13.50;;;12.27;;
3050;SDS011;1535;51.098;6.414;2023-01-01T09:27:12;13.10;;;12.20;;
3050;SDS011;1535;51.098;6.414;2023-01-01T09:29:40;13.27;;;12.00;;
3050;SDS011;1535;51.098;6.414;2023-01-01T09:32:07;13.20;;;12.20;;
3050;SDS011;1535;51.098;6.414;2023-01-01T09:34:33;13.10;;;12.00;;
3050;SDS011;1535;51.098;6.414;2023-01-01T09:37:00;12.87;;;11.83;;
3050;SDS011;1535;51.098;6.414;2023-01-01T09:39:27;13.00;;;11.80;;
3050;SDS011;1535;51.098;6.414;2023-01-01T09:44:56;12.97;;;11.80;;
3050;SDS011;1535;51.098;6.414;2023-01-01T09:47:44;12.00;;;11.30;;
3050;SDS011;1535;51.098;6.414;2023-01-01T09:50:15;13.23;;;12.27;;
3050;SDS011;1535;51.098;6.414;2023-01-01T09:52:44;13.30;;;11.80;;
3050;SDS011;1535;51.098;6.414;2023-01-01T09:55:17;12.20;;;11.50;;
3050;SDS011;1535;51.098;6.414;2023-01-01T09:57:50;12.60;;;11.87;;
3050;SDS011;1535;51.098;6.414;2023-01-01T10:00:19;13.80;;;12.90;;
3050;SDS011;1535;51.098;6.414;2023-01-01T10:02:51;13.53;;;12.43;;
3050;SDS011;1535;51.098;6.414;2023-01-01T10:05:30;13.93;;;13.03;;
3050;SDS011;1535;51.098;6.414;2023-01-01T10:08:04;13.57;;;12.27;;
3050;SDS011;1535;51.098;6.414;2023-01-01T10:10:39;13.00;;;11.87;;
3050;SDS011;1535;51.098;6.414;2023-01-01T10:13:16;13.53;;;12.20;;
3050;SDS011;1535;51.098;6.414;2023-01-01T10:15:53;13.97;;;12.87;;
3050;SDS011;1535;51.098;6.414;2023-01-01T10:18:24;12.70;;;11.70;;
3050;SDS011;1535;51.098;6.414;2023-01-01T10:20:58;13.97;;;12.87;;
3050;SDS011;1535;51.098;6.414;2023-01-01T10:23:30;13.93;;;12.50;;
3050;SDS011;1535;51.098;6.414;2023-01-01T10:26:07;14.07;;;12.70;;
3050;SDS011;1535;51.098;6.414;2023-01-01T10:28:39;13.10;;;12.40;;
3050;SDS011;1535;51.098;6.414;2023-01-01T10:31:17;14.63;;;13.10;;
3050;SDS011;1535;51.098;6.414;2023-01-01T10:33:45;14.53;;;13.37;;
3050;SDS011;1535;51.098;6.414;2023-01-01T10:36:13;13.53;;;12.57;;
3050;SDS011;1535;51.098;6.414;2023-01-01T10:38:44;13.63;;;12.47;;
3050;SDS011;1535;51.098;6.414;2023-01-01T10:41:11;13.07;;;12.27;;
3050;SDS011;1535;51.098;6.414;2023-01-01T10:43:38;13.13;;;12.07;;
3050;SDS011;1535;51.098;6.414;2023-01-01T10:46:05;14.40;;;12.70;;
3050;SDS011;1535;51.098;6.414;2023-01-01T10:48:37;12.77;;;11.77;;
3050;SDS011;1535;51.098;6.414;2023-01-01T10:51:04;14.13;;;12.07;;
3050;SDS011;1535;51.098;6.414;2023-01-01T10:53:33;12.70;;;11.80;;
3050;SDS011;1535;51.098;6.414;2023-01-01T10:56:04;13.40;;;12.30;;
3050;SDS011;1535;51.098;6.414;2023-01-01T10:58:38;13.00;;;11.80;;
3050;SDS011;1535;51.098;6.414;2023-01-01T11:01:07;13.30;;;12.10;;
3050;SDS011;1535;51.098;6.414;2023-01-01T11:03:37;14.57;;;13.07;;
3050;SDS011;1535;51.098;6.414;2023-01-01T11:06:19;13.20;;;12.20;;
3050;SDS011;1535;51.098;6.414;2023-01-01T11:08:47;12.97;;;11.87;;
3050;SDS011;1535;51.098;6.414;2023-01-01T11:11:20;13.20;;;12.20;;
3050;SDS011;1535;51.098;6.414;2023-01-01T11:13:50;13.37;;;12.10;;
3050;SDS011;1535;51.098;6.414;2023-01-01T11:16:19;12.87;;;11.97;;
3050;SDS011;1535;51.098;6.414;2023-01-01T11:18:48;12.53;;;11.63;;
3050;SDS011;1535;51.098;6.414;2023-01-01T11:21:20;13.40;;;12.00;;
3050;SDS011;1535;51.098;6.414;2023-01-01T11:23:48;12.13;;;11.23;;
3050;SDS011;1535;51.098;6.414;2023-01-01T11:26:21;13.60;;;12.00;;
3050;SDS011;1535;51.098;6.414;2023-01-01T11:28:57;14.37;;;12.30;;
3050;SDS011;1535;51.098;6.414;2023-01-01T11:31:27;12.63;;;11.83;;
3050;SDS011;1535;51.098;6.414;2023-01-01T11:33:57;13.63;;;12.60;;
3050;SDS011;1535;51.098;6.414;2023-01-01T11:36:25;12.77;;;11.87;;
3050;SDS011;1535;51.098;6.414;2023-01-01T11:39:12;13.57;;;12.30;;
3050;SDS011;1535;51.098;6.414;2023-01-01T11:41:45;14.33;;;13.27;;
3050;SDS011;1535;51.098;6.414;2023-01-01T11:44:21;13.50;;;12.40;;
3050;SDS011;1535;51.098;6.414;2023-01-01T11:46:53;13.07;;;12.07;;
3050;SDS011;1535;51.098;6.414;2023-01-01T11:49:22;19.47;;;12.73;;
3050;SDS011;1535;51.098;6.414;2023-01-01T11:51:53;13.97;;;12.50;;
3050;SDS011;1535;51.098;6.414;2023-01-01T11:54:22;13.70;;;12.90;;
3050;SDS011;1535;51.098;6.414;2023-01-01T11:56:55;12.93;;;12.03;;
3050;SDS011;1535;51.098;6.414;2023-01-01T11:59:28;14.07;;;12.87;;
3050;SDS011;1535;51.098;6.414;2023-01-01T12:02:02;13.07;;;12.27;;
3050;SDS011;1535;51.098;6.414;2023-01-01T12:04:36;13.60;;;12.60;;
3050;SDS011;1535;51.098;6.414;2023-01-01T12:07:09;13.63;;;12.63;;
3050;SDS011;1535;51.098;6.414;2023-01-01T12:09:39;13.43;;;12.33;;
3050;SDS011;1535;51.098;6.414;2023-01-01T12:12:12;12.67;;;11.97;;
3050;SDS011;1535;51.098;6.414;2023-01-01T12:14:47;13.20;;;12.20;;
3050;SDS011;1535;51.098;6.414;2023-01-01T12:17:21;13.60;;;12.43;;
3050;SDS011;1535;51.098;6.414;2023-01-01T12:19:55;14.40;;;13.30;;
3050;SDS011;1535;51.098;6.414;2023-01-01T12:22:26;12.97;;;11.93;;
3050;SDS011;1535;51.098;6.414;2023-01-01T12:24:54;14.20;;;12.90;;
3050;SDS011;1535;51.098;6.414;2023-01-01T12:27:27;13.27;;;12.33;;
3050;SDS011;1535;51.098;6.414;2023-01-01T12:30:10;12.70;;;11.80;;
3050;SDS011;1535;51.098;6.414;2023-01-01T12:32:44;13.47;;;12.43;;
3050;SDS011;1535;51.098;6.414;2023-01-01T12:35:35;13.60;;;12.40;;
3050;SDS011;1535;51.098;6.414;2023-01-01T12:38:22;15.40;;;12.80;;
3050;SDS011;1535;51.098;6.414;2023-01-01T12:41:01;13.90;;;12.70;;
3050;SDS011;1535;51.098;6.414;2023-01-01T12:43:34;13.30;;;12.50;;
3050;SDS011;1535;51.098;6.414;2023-01-01T12:46:25;13.20;;;12.00;;
3050;SDS011;1535;51.098;6.414;2023-01-01T12:52:18;13.80;;;12.40;;
3050;SDS011;1535;51.098;6.414;2023-01-01T12:55:03;12.93;;;12.00;;
3050;SDS011;1535;51.098;6.414;2023-01-01T12:57:54;13.77;;;12.33;;
3050;SDS011;1535;51.098;6.414;2023-01-01T13:00:25;13.87;;;12.37;;
3050;SDS011;1535;51.098;6.414;2023-01-01T13:02:54;13.30;;;12.30;;
3050;SDS011;1535;51.098;6.414;2023-01-01T13:05:26;14.43;;;13.43;;
3050;SDS011;1535;51.098;6.414;2023-01-01T13:08:01;14.63;;;13.33;;
3050;SDS011;1535;51.098;6.414;2023-01-01T13:10:30;13.90;;;12.83;;
3050;SDS011;1535;51.098;6.414;2023-01-01T13:13:00;13.97;;;12.73;;
3050;SDS011;1535;51.098;6.414;2023-01-01T13:15:45;13.20;;;12.10;;
3050;SDS011;1535;51.098;6.414;2023-01-01T13:18:23;13.43;;;12.40;;
3050;SDS011;1535;51.098;6.414;2023-01-01T13:20:57;12.80;;;11.80;;
3050;SDS011;1535;51.098;6.414;2023-01-01T13:23:41;13.50;;;12.30;;
3050;SDS011;1535;51.098;6.414;2023-01-01T13:26:37;12.50;;;11.50;;
3050;SDS011;1535;51.098;6.414;2023-01-01T13:32:03;13.53;;;12.40;;
3050;SDS011;1535;51.098;6.414;2023-01-01T13:34:32;14.63;;;13.43;;
3050;SDS011;1535;51.098;6.414;2023-01-01T13:40:23;13.17;;;12.40;;
3050;SDS011;1535;51.098;6.414;2023-01-01T13:43:05;13.00;;;11.90;;
3050;SDS011;1535;51.098;6.414;2023-01-01T13:45:52;13.57;;;12.27;;
3050;SDS011;1535;51.098;6.414;2023-01-01T13:51:46;14.97;;;13.40;;
3050;SDS011;1535;51.098;6.414;2023-01-01T13:54:25;17.77;;;16.03;;
3050;SDS011;1535;51.098;6.414;2023-01-01T13:57:28;18.43;;;16.10;;
3050;SDS011;1535;51.098;6.414;2023-01-01T14:00:16;23.73;;;15.43;;
3050;SDS011;1535;51.098;6.414;2023-01-01T14:02:46;15.20;;;13.87;;
3050;SDS011;1535;51.098;6.414;2023-01-01T14:05:24;14.43;;;13.10;;
3050;SDS011;1535;51.098;6.414;2023-01-01T14:07:55;19.83;;;14.03;;
3050;SDS011;1535;51.098;6.414;2023-01-01T14:10:23;14.53;;;13.10;;
3050;SDS011;1535;51.098;6.414;2023-01-01T14:12:54;14.93;;;13.67;;
3050;SDS011;1535;51.098;6.414;2023-01-01T14:15:27;16.43;;;14.73;;
3050;SDS011;1535;51.098;6.414;2023-01-01T14:17:57;15.90;;;14.50;;
3050;SDS011;1535;51.098;6.414;2023-01-01T14:20:27;14.07;;;13.10;;
3050;SDS011;1535;51.098;6.414;2023-01-01T14:23:00;14.30;;;13.27;;
3050;SDS011;1535;51.098;6.414;2023-01-01T14:25:31;14.00;;;12.80;;
3050;SDS011;1535;51.098;6.414;2023-01-01T14:27:59;14.40;;;13.00;;
3050;SDS011;1535;51.098;6.414;2023-01-01T14:30:26;13.97;;;12.80;;
3050;SDS011;1535;51.098;6.414;2023-01-01T14:32:57;14.57;;;13.23;;
3050;SDS011;1535;51.098;6.414;2023-01-01T14:35:25;13.60;;;12.27;;
3050;SDS011;1535;51.098;6.414;2023-01-01T14:37:52;13.63;;;12.67;;
3050;SDS011;1535;51.098;6.414;2023-01-01T14:40:20;12.97;;;12.17;;
3050;SDS011;1535;51.098;6.414;2023-01-01T14:42:55;13.33;;;12.23;;
3050;SDS011;1535;51.098;6.414;2023-01-01T14:45:28;12.53;;;11.87;;
3050;SDS011;1535;51.098;6.414;2023-01-01T14:47:57;13.33;;;12.07;;
3050;SDS011;1535;51.098;6.414;2023-01-01T14:50:26;13.97;;;12.60;;
3050;SDS011;1535;51.098;6.414;2023-01-01T14:52:55;14.13;;;12.60;;
3050;SDS011;1535;51.098;6.414;2023-01-01T14:55:28;15.30;;;13.90;;
3050;SDS011;1535;51.098;6.414;2023-01-01T14:57:59;21.43;;;19.50;;
3050;SDS011;1535;51.098;6.414;2023-01-01T15:00:29;17.37;;;15.80;;
3050;SDS011;1535;51.098;6.414;2023-01-01T15:03:09;23.43;;;21.03;;
3050;SDS011;1535;51.098;6.414;2023-01-01T15:05:38;26.37;;;23.50;;
3050;SDS011;1535;51.098;6.414;2023-01-01T15:08:06;16.97;;;15.60;;
3050;SDS011;1535;51.098;6.414;2023-01-01T15:10:43;15.93;;;14.33;;
3050;SDS011;1535;51.098;6.414;2023-01-01T15:13:11;15.40;;;14.37;;
3050;SDS011;1535;51.098;6.414;2023-01-01T15:15:46;15.13;;;14.03;;
3050;SDS011;1535;51.098;6.414;2023-01-01T15:18:36;16.93;;;15.67;;
3050;SDS011;1535;51.098;6.414;2023-01-01T15:21:05;17.20;;;15.90;;
3050;SDS011;1535;51.098;6.414;2023-01-01T15:23:37;16.50;;;15.43;;
3050;SDS011;1535;51.098;6.414;2023-01-01T15:26:07;16.87;;;15.20;;
3050;SDS011;1535;51.098;6.414;2023-01-01T15:28:36;16.93;;;15.30;;